NZ4D-1 Weather Reports


time (UTC)temp
F
wind
direction
speed
knots
gust
knots
rain 1hr
in
rain 24hr
in
rain mn
in
humidity
%
barometer
mb
20260506062005 61 0 0.0 1.7 0.00 0.00 0.00 87 1016.0
20260506061004 61 0 0.0 0.0 0.00 0.00 0.00 86 1016.2
20260506051005 62 0 0.0 0.0 0.00 0.00 0.00 84 1016.8
20260506045004 62 0 0.0 0.0 0.00 0.00 0.00 83 1017.1
20260506044004 62 0 0.0 0.0 0.00 0.00 0.00 82 1017.2
20260506042005 63 0 0.0 0.0 0.00 0.00 0.00 80 1017.2
20260506041005 63 0 0.0 0.0 0.00 0.00 0.00 80 1017.3
20260506035004 64 0 0.0 0.0 0.00 0.00 0.00 79 1017.4
20260506033005 64 0 0.0 0.0 0.00 0.00 0.00 78 1017.3
20260506032005 64 0 0.0 0.0 0.00 0.00 0.00 77 1017.4
20260506031004 64 0 0.0 0.0 0.00 0.00 0.00 76 1017.4
20260506030004 65 0 0.0 0.0 0.00 0.00 0.00 76 1017.4
20260506024004 65 0 0.0 0.0 0.00 0.00 0.00 75 1017.4
20260506023005 66 0 0.0 0.0 0.00 0.00 0.00 74 1017.3
20260506022004 66 0 0.0 0.0 0.00 0.00 0.00 74 1017.2
20260506021004 66 0 0.0 0.0 0.00 0.00 0.00 73 1017.2
20260506020004 67 0 0.0 0.0 0.00 0.00 0.00 73 1017.1
20260506015005 67 0 0.0 0.0 0.00 0.00 0.00 73 1017.1
20260506014004 67 0 0.0 0.0 0.00 0.00 0.00 73 1017.0
20260506013004 68 0 0.0 1.7 0.00 0.00 0.00 73 1017.0
20260506012004 68 0 0.0 0.0 0.00 0.00 0.00 73 1016.9
20260506011004 68 0 0.0 8.7 0.00 0.00 0.00 72 1016.9
20260506010005 69 0 0.0 7.0 0.00 0.00 0.00 71 1016.7
20260506005004 69 0 0.0 7.0 0.00 0.00 0.00 70 1016.5
20260506004004 70 0 0.0 0.0 0.00 0.00 0.00 70 1016.5
20260506003004 70 0 0.0 7.0 0.00 0.00 0.00 69 1016.3
20260506002004 70 0 0.0 1.7 0.00 0.00 0.00 68 1016.2
20260506001004 71 0 0.0 2.6 0.00 0.00 0.00 67 1016.1
20260506000007 71 0 0.0 0.0 0.00 0.00 0.00 66 1016.1
20260505235004 72 0 0.0 7.8 0.00 0.00 0.00 66 1016.1
20260505234004 72 0 0.0 2.6 0.00 0.00 0.00 65 1016.2
20260505231004 74 214 0.9 10.4 0.00 0.00 0.00 63 1015.8
20260505230004 74 0 0.0 7.0 0.00 0.00 0.00 62 1015.8
20260505225004 74 0 0.0 10.4 0.00 0.00 0.00 61 1015.9
20260505223003 76 0 0.0 10.4 0.00 0.00 0.00 60 1015.7
20260505222004 76 0 0.0 0.0 0.00 0.00 0.00 58 1015.6
20260505221004 76 0 0.0 5.2 0.00 0.00 0.00 57 1015.7
20260505220004 77 0 0.0 0.0 0.00 0.00 0.00 56 1015.7
20260505215005 77 0 0.0 7.8 0.00 0.00 0.00 55 1015.7
20260505213004 78 211 0.0 5.2 0.00 0.00 0.00 55 1015.7
20260505210004 78 209 0.0 5.2 0.00 0.00 0.00 53 1015.5
20260505205004 78 0 0.0 5.2 0.00 0.00 0.00 54 1015.4
20260505204004 78 0 0.0 0.0 0.00 0.00 0.00 53 1015.5
20260505203004 78 0 0.0 0.0 0.00 0.00 0.00 54 1015.5
20260505202003 78 0 0.0 5.2 0.00 0.00 0.00 53 1015.7
20260505201004 79 0 0.0 8.7 0.00 0.00 0.00 51 1015.9
20260505200003 79 0 0.0 10.4 0.00 0.00 0.00 51 1015.8
20260505195004 79 0 0.0 0.0 0.00 0.00 0.00 50 1016.0
20260505194012 79 0 0.0 10.4 0.00 0.00 0.00 50 1016.2
20260505193003 79 0 0.0 7.0 0.00 0.00 0.00 50 1016.4
20260505192004 79 0 0.0 5.2 0.00 0.00 0.00 49 1016.6
20260505191004 79 0 0.0 0.0 0.00 0.00 0.00 50 1016.8
20260505190005 78 0 0.0 1.7 0.00 0.00 0.00 52 1016.9
20260505185004 78 0 0.0 1.7 0.00 0.00 0.00 51 1016.9
20260505184004 78 0 0.0 0.0 0.00 0.00 0.00 52 1017.1
20260505180004 78 0 0.0 2.6 0.00 0.00 0.00 52 1017.4
20260505175004 78 0 0.0 7.8 0.00 0.00 0.00 54 1017.3
20260505174003 78 0 0.0 5.2 0.00 0.00 0.00 51 1017.3
20260505173003 78 0 0.0 0.0 0.00 0.00 0.00 53 1017.4
20260505171003 78 0 0.0 0.0 0.00 0.00 0.00 54 1017.6
20260505165006 78 0 0.0 1.7 0.00 0.00 0.00 53 1017.8
20260505164006 77 0 0.0 0.0 0.00 0.00 0.00 55 1018.0
20260505163007 77 0 0.0 0.0 0.00 0.00 0.00 54 1018.1
20260505162005 77 0 0.0 0.0 0.00 0.00 0.00 55 1018.4
20260505161005 76 0 0.0 0.0 0.00 0.00 0.00 56 1018.4
20260505153005 76 0 0.0 2.6 0.00 0.00 0.00 58 1018.5
20260505152005 75 0 0.0 2.6 0.00 0.00 0.00 63 1018.5
20260505151005 74 0 0.0 0.0 0.00 0.00 0.00 62 1018.6
20260505125005 61 0 0.0 0.0 0.00 0.00 0.00 87 1018.9
20260505124005 60 0 0.0 0.0 0.00 0.00 0.00 89 1019.0
20260505123005 58 0 0.0 0.0 0.00 0.00 0.00 93 1018.8
20260505122005 57 0 0.0 0.0 0.00 0.00 0.00 95 1018.8
20260505121005 55 0 0.0 0.0 0.00 0.00 0.00 96 1018.8
20260505120005 54 0 0.0 1.7 0.00 0.00 0.00 96 1018.7
20260505115005 53 0 0.0 0.0 0.00 0.00 0.00 96 1018.6
20260505114005 52 0 0.0 0.0 0.00 0.00 0.00 95 1018.5
20260505113006 52 0 0.0 0.0 0.00 0.00 0.00 95 1018.4
20260505112005 51 0 0.0 0.0 0.00 0.00 0.00 94 1018.4
20260505111005 51 0 0.0 0.0 0.00 0.00 0.00 93 1018.2
20260505102006 51 0 0.0 0.0 0.00 0.00 0.00 90 1017.7
20260505101004 51 0 0.0 0.0 0.00 0.00 0.00 90 1017.5
20260505100005 52 0 0.0 0.0 0.00 0.00 0.00 90 1017.4
20260505095005 52 0 0.0 0.0 0.00 0.00 0.00 89 1017.3
20260505093005 52 0 0.0 0.0 0.00 0.00 0.00 88 1017.2
20260505092004 53 0 0.0 0.0 0.00 0.00 0.00 88 1017.1
20260505091005 53 0 0.0 0.0 0.00 0.00 0.00 87 1017.1
20260505090005 53 0 0.0 0.0 0.00 0.00 0.00 86 1017.0
20260505084005 54 0 0.0 0.0 0.00 0.00 0.00 85 1016.8
20260505083005 54 0 0.0 0.0 0.00 0.00 0.00 85 1016.9
20260505082005 55 0 0.0 0.0 0.00 0.00 0.00 85 1016.8
20260505081005 55 0 0.0 0.0 0.00 0.00 0.00 85 1016.7
20260505080015 55 0 0.0 0.0 0.00 0.00 0.00 85 1016.7
20260505075005 56 0 0.0 0.0 0.00 0.00 0.00 84 1016.7
20260505073005 56 0 0.0 0.0 0.00 0.00 0.00 82 1016.7
20260505072004 57 0 0.0 0.0 0.00 0.00 0.00 82 1016.5
20260505071005 57 0 0.0 0.0 0.00 0.00 0.00 81 1016.4